Time,TemperatureF,DewpointF,PressureIn,WindDirection,WindDirectionDegrees,WindSpeedMPH,WindSpeedGustMPH,Humidity,HourlyPrecipIn,Conditions,Clouds,dailyrainin,SoftwareType,DateUTC
2013-10-12 00:08:00,52.3,52.0,29.78,ENE,67,4.7,-999.0,99,-99.99,,,0.00,Acu-Link.com,2013-10-12 07:08:00,
2013-10-12 00:23:00,52.2,51.9,29.78,ESE,112,3.2,-999.0,99,-99.99,,,0.00,Acu-Link.com,2013-10-12 07:23:00,
2013-10-12 00:39:00,52.2,51.9,29.78,ESE,112,1.7,-999.0,99,-99.99,,,0.00,Acu-Link.com,2013-10-12 07:39:00,
2013-10-12 00:54:00,52.2,51.9,29.79,East,90,0.0,-999.0,99,-99.99,,,0.00,Acu-Link.com,2013-10-12 07:54:00,
2013-10-12 01:10:00,52.3,51.5,29.78,SSE,157,0.0,-999.0,97,-99.99,,,0.00,Acu-Link.com,2013-10-12 08:10:00,
2013-10-12 01:26:00,53.1,52.3,29.79,WNW,292,1.1,-999.0,97,-99.99,,,0.00,Acu-Link.com,2013-10-12 08:26:00,
2013-10-12 01:41:00,52.5,52.0,29.78,East,90,2.2,-999.0,98,-99.99,,,0.00,Acu-Link.com,2013-10-12 08:41:00,
2013-10-12 01:57:00,52.3,52.0,29.79,ESE,112,2.7,-999.0,99,-99.99,,,0.00,Acu-Link.com,2013-10-12 08:57:00,
2013-10-12 02:12:00,52.2,51.9,29.79,South,180,0.0,-999.0,99,-99.99,,,0.00,Acu-Link.com,2013-10-12 09:12:00,
2013-10-12 02:27:00,52.0,51.7,29.78,SE,135,1.7,-999.0,99,-99.99,,,0.00,Acu-Link.com,2013-10-12 09:27:00,
2013-10-12 02:42:00,51.8,51.5,29.78,ESE,112,1.1,-999.0,99,-99.99,,,0.00,Acu-Link.com,2013-10-12 09:42:00,
2013-10-12 02:58:00,52.5,52.0,29.78,ESE,112,0.0,-999.0,98,-99.99,,,0.00,Acu-Link.com,2013-10-12 09:58:00,
2013-10-12 03:13:00,52.2,51.7,29.78,SE,135,0.0,-999.0,98,-99.99,,,0.00,Acu-Link.com,2013-10-12 10:13:00,
2013-10-12 03:28:00,52.2,51.9,29.79,South,180,2.2,-999.0,99,-99.99,,,0.00,Acu-Link.com,2013-10-12 10:28:00,
2013-10-12 03:43:00,52.0,51.7,29.78,SW,225,0.0,-999.0,99,-99.99,,,0.01,Acu-Link.com,2013-10-12 10:43:00,
2013-10-12 03:58:00,51.8,51.3,29.78,SSW,202,2.7,-999.0,98,-99.99,,,0.01,Acu-Link.com,2013-10-12 10:58:00,
2013-10-12 04:13:00,51.6,51.1,29.78,SSW,202,4.7,-999.0,98,-99.99,,,0.01,Acu-Link.com,2013-10-12 11:13:00,
2013-10-12 04:28:00,51.3,50.5,29.79,SSW,202,2.2,-999.0,97,-99.99,,,0.02,Acu-Link.com,2013-10-12 11:28:00,
2013-10-12 04:43:00,51.1,50.6,29.79,ESE,112,0.0,-999.0,98,-99.99,,,0.02,Acu-Link.com,2013-10-12 11:43:00,
2013-10-12 04:58:00,51.1,50.6,29.78,SSW,202,0.0,-999.0,98,-99.99,,,0.02,Acu-Link.com,2013-10-12 11:58:00,
2013-10-12 05:14:00,51.1,50.8,29.79,West,270,0.0,-999.0,99,-99.99,,,0.02,Acu-Link.com,2013-10-12 12:14:00,
2013-10-12 05:29:00,51.1,50.8,29.79,SW,225,1.7,-999.0,99,-99.99,,,0.03,Acu-Link.com,2013-10-12 12:29:00,
2013-10-12 05:44:00,51.1,50.8,29.80,SW,225,3.2,-999.0,99,-99.99,,,0.03,Acu-Link.com,2013-10-12 12:44:00,
2013-10-12 05:59:00,50.9,50.6,29.80,West,270,3.2,-999.0,99,-99.99,,,0.03,Acu-Link.com,2013-10-12 12:59:00,
2013-10-12 06:14:00,50.5,50.2,29.80,WNW,292,1.1,-999.0,99,-99.99,,,0.03,Acu-Link.com,2013-10-12 13:14:00,
2013-10-12 06:29:00,50.5,50.2,29.79,North,0,0.0,-999.0,99,-99.99,,,0.03,Acu-Link.com,2013-10-12 13:29:00,
2013-10-12 06:44:00,50.4,50.1,29.80,NW,315,2.7,-999.0,99,-99.99,,,0.04,Acu-Link.com,2013-10-12 13:44:00,
2013-10-12 06:59:00,50.4,50.1,29.80,West,270,2.7,-999.0,99,-99.99,,,0.04,Acu-Link.com,2013-10-12 13:59:00,
2013-10-12 07:14:00,50.4,50.1,29.79,WSW,247,1.1,-999.0,99,-99.99,,,0.04,Acu-Link.com,2013-10-12 14:14:00,
2013-10-12 07:30:00,50.4,50.1,29.80,NW,315,2.2,-999.0,99,-99.99,,,0.04,Acu-Link.com,2013-10-12 14:30:00,
2013-10-12 07:45:00,50.5,50.2,29.80,West,270,0.0,-999.0,99,-99.99,,,0.04,Acu-Link.com,2013-10-12 14:45:00,
2013-10-12 08:00:00,50.5,50.2,29.80,WNW,292,0.0,-999.0,99,-99.99,,,0.04,Acu-Link.com,2013-10-12 15:00:00,
2013-10-12 08:15:00,50.5,50.2,29.81,WNW,292,0.0,-999.0,99,-99.99,,,0.05,Acu-Link.com,2013-10-12 15:15:00,
2013-10-12 08:30:00,50.7,50.4,29.80,SSW,202,0.0,-999.0,99,-99.99,,,0.06,Acu-Link.com,2013-10-12 15:30:00,
2013-10-12 08:45:00,50.7,50.4,29.82,SW,225,3.2,-999.0,99,-99.99,,,0.06,Acu-Link.com,2013-10-12 15:45:00,
2013-10-12 09:00:00,51.1,50.8,29.82,WNW,292,2.7,-999.0,99,-99.99,,,0.06,Acu-Link.com,2013-10-12 16:00:00,
2013-10-12 09:15:00,51.4,51.1,29.82,North,0,2.2,-999.0,99,-99.99,,,0.06,Acu-Link.com,2013-10-12 16:15:00,
2013-10-12 09:30:00,51.6,51.1,29.81,NW,315,3.2,-999.0,98,-99.99,,,0.06,Acu-Link.com,2013-10-12 16:30:00,
2013-10-12 09:46:00,51.8,51.0,29.82,NNW,337,3.2,-999.0,97,-99.99,,,0.06,Acu-Link.com,2013-10-12 16:46:00,
2013-10-12 10:01:00,51.6,50.8,29.82,North,0,3.2,-999.0,97,-99.99,,,0.06,Acu-Link.com,2013-10-12 17:01:00,
2013-10-12 10:16:00,51.8,50.7,29.82,NNW,337,4.2,-999.0,96,-99.99,,,0.06,Acu-Link.com,2013-10-12 17:16:00,
2013-10-12 10:31:00,52.0,51.2,29.82,NNE,22,4.2,-999.0,97,-99.99,,,0.06,Acu-Link.com,2013-10-12 17:31:00,
2013-10-12 10:46:00,52.0,51.2,29.83,NW,315,6.3,-999.0,97,-99.99,,,0.06,Acu-Link.com,2013-10-12 17:46:00,
2013-10-12 11:01:00,52.2,51.4,29.82,NE,45,5.8,-999.0,97,-99.99,,,0.06,Acu-Link.com,2013-10-12 18:01:00,
2013-10-12 11:16:00,52.5,51.1,29.82,NNE,22,4.2,-999.0,95,-99.99,,,0.06,Acu-Link.com,2013-10-12 18:16:00,
2013-10-12 11:31:00,52.3,50.9,29.83,NW,315,4.7,-999.0,95,-99.99,,,0.06,Acu-Link.com,2013-10-12 18:31:00,
2013-10-12 11:46:00,53.2,51.2,29.83,West,270,4.2,-999.0,93,-99.99,,,0.06,Acu-Link.com,2013-10-12 18:46:00,
2013-10-12 12:02:00,52.7,50.4,29.82,West,270,5.3,-999.0,92,-99.99,,,0.06,Acu-Link.com,2013-10-12 19:02:00,
2013-10-12 12:17:00,52.7,51.3,29.83,NNE,22,5.8,-999.0,95,-99.99,,,0.06,Acu-Link.com,2013-10-12 19:17:00,
2013-10-12 12:32:00,52.7,51.0,29.84,NW,315,6.3,-999.0,94,-99.99,,,0.06,Acu-Link.com,2013-10-12 19:32:00,
2013-10-12 12:47:00,53.4,51.1,29.83,West,270,2.7,-999.0,92,-99.99,,,0.06,Acu-Link.com,2013-10-12 19:47:00,
2013-10-12 13:02:00,53.6,50.7,29.83,WNW,292,5.8,-999.0,90,-99.99,,,0.06,Acu-Link.com,2013-10-12 20:02:00,
2013-10-12 13:17:00,54.1,50.6,29.82,East,90,0.0,-999.0,88,-99.99,,,0.06,Acu-Link.com,2013-10-12 20:17:00,
2013-10-12 13:32:00,54.5,50.4,29.82,SW,225,6.3,-999.0,86,-99.99,,,0.06,Acu-Link.com,2013-10-12 20:32:00,
2013-10-12 13:47:00,55.0,50.9,29.82,WNW,292,4.7,-999.0,86,-99.99,,,0.06,Acu-Link.com,2013-10-12 20:47:00,
2013-10-12 14:02:00,55.4,50.6,29.82,WNW,292,5.3,-999.0,84,-99.99,,,0.06,Acu-Link.com,2013-10-12 21:02:00,
2013-10-12 14:18:00,55.2,50.5,29.82,WNW,292,7.8,-999.0,84,-99.99,,,0.06,Acu-Link.com,2013-10-12 21:18:00,
2013-10-12 14:33:00,55.4,50.3,29.82,SW,225,6.8,-999.0,83,-99.99,,,0.06,Acu-Link.com,2013-10-12 21:33:00,
2013-10-12 14:48:00,55.6,49.2,29.82,North,0,8.9,-999.0,79,-99.99,,,0.06,Acu-Link.com,2013-10-12 21:48:00,
2013-10-12 15:03:00,55.4,50.0,29.82,NNE,22,6.8,-999.0,82,-99.99,,,0.06,Acu-Link.com,2013-10-12 22:03:00,
2013-10-12 15:18:00,55.6,50.5,29.83,ESE,112,5.3,-999.0,83,-99.99,,,0.06,Acu-Link.com,2013-10-12 22:18:00,
2013-10-12 15:33:00,55.6,50.5,29.83,NW,315,5.8,-999.0,83,-99.99,,,0.06,Acu-Link.com,2013-10-12 22:33:00,
2013-10-12 15:48:00,56.1,50.7,29.84,NNW,337,7.3,-999.0,82,-99.99,,,0.06,Acu-Link.com,2013-10-12 22:48:00,
2013-10-12 16:03:00,55.8,50.4,29.83,WNW,292,9.4,-999.0,82,-99.99,,,0.06,Acu-Link.com,2013-10-12 23:03:00,
2013-10-12 16:18:00,55.8,50.4,29.84,NNW,337,5.8,-999.0,82,-99.99,,,0.06,Acu-Link.com,2013-10-12 23:18:00,
2013-10-12 16:34:00,55.8,50.1,29.83,WNW,292,7.8,-999.0,81,-99.99,,,0.06,Acu-Link.com,2013-10-12 23:34:00,
2013-10-12 16:49:00,55.9,50.2,29.85,WSW,247,4.7,-999.0,81,-99.99,,,0.06,Acu-Link.com,2013-10-12 23:49:00,
2013-10-12 17:04:00,55.4,50.3,29.84,NW,315,6.8,-999.0,83,-99.99,,,0.06,Acu-Link.com,2013-10-13 00:04:00,
2013-10-12 17:19:00,55.2,50.5,29.85,NW,315,4.7,-999.0,84,-99.99,,,0.06,Acu-Link.com,2013-10-13 00:19:00,
2013-10-12 17:34:00,55.0,50.6,29.86,West,270,4.7,-999.0,85,-99.99,,,0.06,Acu-Link.com,2013-10-13 00:34:00,
2013-10-12 17:49:00,54.5,50.1,29.86,NNW,337,5.3,-999.0,85,-99.99,,,0.06,Acu-Link.com,2013-10-13 00:49:00,
2013-10-12 18:04:00,54.3,49.9,29.86,West,270,4.7,-999.0,85,-99.99,,,0.06,Acu-Link.com,2013-10-13 01:04:00,
2013-10-12 18:19:00,53.8,50.0,29.85,NW,315,2.2,-999.0,87,-99.99,,,0.06,Acu-Link.com,2013-10-13 01:19:00,
2013-10-12 18:34:00,53.6,50.1,29.85,West,270,3.2,-999.0,88,-99.99,,,0.06,Acu-Link.com,2013-10-13 01:34:00,
2013-10-12 18:50:00,53.2,50.0,29.86,NNW,337,1.1,-999.0,89,-99.99,,,0.06,Acu-Link.com,2013-10-13 01:50:00,
2013-10-12 19:05:00,52.9,50.0,29.87,NW,315,0.0,-999.0,90,-99.99,,,0.06,Acu-Link.com,2013-10-13 02:05:00,
2013-10-12 19:20:00,52.2,49.9,29.88,NNE,22,2.7,-999.0,92,-99.99,,,0.06,Acu-Link.com,2013-10-13 02:20:00,
2013-10-12 19:35:00,52.3,49.8,29.88,SW,225,0.0,-999.0,91,-99.99,,,0.06,Acu-Link.com,2013-10-13 02:35:00,
2013-10-12 19:50:00,51.6,49.1,29.89,ESE,112,0.0,-999.0,91,-99.99,,,0.06,Acu-Link.com,2013-10-13 02:50:00,
2013-10-12 20:05:00,51.1,48.9,29.89,ENE,67,0.0,-999.0,92,-99.99,,,0.06,Acu-Link.com,2013-10-13 03:05:00,
2013-10-12 20:20:00,51.4,48.9,29.89,NNE,22,0.0,-999.0,91,-99.99,,,0.06,Acu-Link.com,2013-10-13 03:20:00,
2013-10-12 20:35:00,50.0,48.1,29.90,ESE,112,0.0,-999.0,93,-99.99,,,0.06,Acu-Link.com,2013-10-13 03:35:00,
2013-10-12 20:50:00,48.9,47.8,29.89,ESE,112,0.0,-999.0,96,-99.99,,,0.06,Acu-Link.com,2013-10-13 03:50:00,
2013-10-12 21:06:00,48.6,48.3,29.90,ESE,112,0.0,-999.0,99,-99.99,,,0.06,Acu-Link.com,2013-10-13 04:06:00,
2013-10-12 21:21:00,48.4,48.1,29.91,ESE,112,0.0,-999.0,99,-99.99,,,0.06,Acu-Link.com,2013-10-13 04:21:00,
2013-10-12 21:36:00,48.2,47.9,29.91,SE,135,0.0,-999.0,99,-99.99,,,0.06,Acu-Link.com,2013-10-13 04:36:00,
2013-10-12 21:51:00,47.8,47.5,29.92,SE,135,0.0,-999.0,99,-99.99,,,0.06,Acu-Link.com,2013-10-13 04:51:00,
2013-10-12 22:06:00,47.5,47.2,29.91,ENE,67,0.0,-999.0,99,-99.99,,,0.06,Acu-Link.com,2013-10-13 05:06:00,
2013-10-12 22:21:00,47.8,47.5,29.92,ESE,112,0.0,-999.0,99,-99.99,,,0.06,Acu-Link.com,2013-10-13 05:21:00,
2013-10-12 22:38:00,48.0,47.7,29.92,NE,45,0.0,-999.0,99,-99.99,,,0.06,Acu-Link.com,2013-10-13 05:38:00,
2013-10-12 22:53:00,48.2,47.9,29.92,NE,45,0.0,-999.0,99,-99.99,,,0.06,Acu-Link.com,2013-10-13 05:53:00,
2013-10-12 23:08:00,48.0,47.7,29.92,NE,45,0.0,-999.0,99,-99.99,,,0.06,Acu-Link.com,2013-10-13 06:08:00,
2013-10-12 23:23:00,47.7,47.4,29.92,NNE,22,0.0,-999.0,99,-99.99,,,0.06,Acu-Link.com,2013-10-13 06:23:00,
2013-10-12 23:40:00,48.9,48.6,29.92,NNW,337,0.0,-999.0,99,-99.99,,,0.06,Acu-Link.com,2013-10-13 06:40:00,
2013-10-12 23:55:00,47.8,47.5,29.92,East,90,0.0,-999.0,99,-99.99,,,0.06,Acu-Link.com,2013-10-13 06:55:00,